sensor_id;sensor_type;location;lat;lon;timestamp;P1;durP1;ratioP1;P2;durP2;ratioP2
75038;SDS011;63609;49.992;14.512;2023-10-19T00:03:30;13.43;;;6.30;;
75038;SDS011;63609;49.992;14.512;2023-10-19T00:05:57;12.15;;;5.85;;
75038;SDS011;63609;49.992;14.512;2023-10-19T00:08:24;15.65;;;6.07;;
75038;SDS011;63609;49.992;14.512;2023-10-19T00:10:52;11.70;;;6.55;;
75038;SDS011;63609;49.992;14.512;2023-10-19T00:13:34;13.75;;;5.88;;
75038;SDS011;63609;49.992;14.512;2023-10-19T00:16:02;13.60;;;5.43;;
75038;SDS011;63609;49.992;14.512;2023-10-19T00:18:38;14.02;;;6.28;;
75038;SDS011;63609;49.992;14.512;2023-10-19T00:21:09;13.80;;;6.30;;
75038;SDS011;63609;49.992;14.512;2023-10-19T00:23:46;12.00;;;6.45;;
75038;SDS011;63609;49.992;14.512;2023-10-19T00:26:15;15.43;;;7.03;;
75038;SDS011;63609;49.992;14.512;2023-10-19T00:28:58;11.18;;;5.90;;
75038;SDS011;63609;49.992;14.512;2023-10-19T00:31:27;12.35;;;5.70;;
75038;SDS011;63609;49.992;14.512;2023-10-19T00:33:56;11.70;;;6.30;;
75038;SDS011;63609;49.992;14.512;2023-10-19T00:36:23;15.88;;;6.47;;
75038;SDS011;63609;49.992;14.512;2023-10-19T00:38:51;11.95;;;6.72;;
75038;SDS011;63609;49.992;14.512;2023-10-19T00:41:22;10.20;;;6.28;;
75038;SDS011;63609;49.992;14.512;2023-10-19T00:43:54;11.68;;;6.03;;
75038;SDS011;63609;49.992;14.512;2023-10-19T00:46:43;11.60;;;6.15;;
75038;SDS011;63609;49.992;14.512;2023-10-19T00:49:16;17.45;;;6.35;;
75038;SDS011;63609;49.992;14.512;2023-10-19T00:51:48;11.20;;;6.38;;
75038;SDS011;63609;49.992;14.512;2023-10-19T00:54:26;13.30;;;6.57;;
75038;SDS011;63609;49.992;14.512;2023-10-19T00:57:14;12.85;;;6.25;;
75038;SDS011;63609;49.992;14.512;2023-10-19T00:59:46;15.73;;;6.90;;
75038;SDS011;63609;49.992;14.512;2023-10-19T01:02:21;13.43;;;6.00;;
75038;SDS011;63609;49.992;14.512;2023-10-19T01:04:52;12.93;;;6.43;;
75038;SDS011;63609;49.992;14.512;2023-10-19T01:07:28;12.73;;;5.68;;
75038;SDS011;63609;49.992;14.512;2023-10-19T01:09:56;13.98;;;5.60;;
75038;SDS011;63609;49.992;14.512;2023-10-19T01:12:29;16.00;;;6.97;;
75038;SDS011;63609;49.992;14.512;2023-10-19T01:15:13;14.05;;;6.35;;
75038;SDS011;63609;49.992;14.512;2023-10-19T01:17:45;12.07;;;5.95;;
75038;SDS011;63609;49.992;14.512;2023-10-19T01:20:25;11.55;;;6.75;;
75038;SDS011;63609;49.992;14.512;2023-10-19T01:23:02;12.43;;;6.45;;
75038;SDS011;63609;49.992;14.512;2023-10-19T01:28:21;13.30;;;6.07;;
75038;SDS011;63609;49.992;14.512;2023-10-19T01:30:56;13.23;;;6.55;;
75038;SDS011;63609;49.992;14.512;2023-10-19T01:33:26;15.57;;;6.47;;
75038;SDS011;63609;49.992;14.512;2023-10-19T01:35:54;13.77;;;6.53;;
75038;SDS011;63609;49.992;14.512;2023-10-19T01:38:40;14.13;;;6.65;;
75038;SDS011;63609;49.992;14.512;2023-10-19T01:41:09;13.68;;;6.72;;
75038;SDS011;63609;49.992;14.512;2023-10-19T01:43:45;11.70;;;6.72;;
75038;SDS011;63609;49.992;14.512;2023-10-19T01:46:14;15.75;;;6.70;;
75038;SDS011;63609;49.992;14.512;2023-10-19T01:48:53;14.90;;;7.38;;
75038;SDS011;63609;49.992;14.512;2023-10-19T01:51:22;16.20;;;7.65;;
75038;SDS011;63609;49.992;14.512;2023-10-19T01:53:51;16.08;;;7.63;;
75038;SDS011;63609;49.992;14.512;2023-10-19T01:56:18;15.80;;;7.15;;
75038;SDS011;63609;49.992;14.512;2023-10-19T01:58:46;15.45;;;6.80;;
75038;SDS011;63609;49.992;14.512;2023-10-19T02:01:17;13.32;;;7.43;;
75038;SDS011;63609;49.992;14.512;2023-10-19T02:03:55;14.60;;;7.50;;
75038;SDS011;63609;49.992;14.512;2023-10-19T02:06:28;15.80;;;7.53;;
75038;SDS011;63609;49.992;14.512;2023-10-19T02:09:03;14.00;;;6.72;;
75038;SDS011;63609;49.992;14.512;2023-10-19T02:11:36;12.77;;;7.00;;
75038;SDS011;63609;49.992;14.512;2023-10-19T02:14:05;13.75;;;6.18;;
75038;SDS011;63609;49.992;14.512;2023-10-19T02:16:45;12.85;;;6.13;;
75038;SDS011;63609;49.992;14.512;2023-10-19T02:19:14;13.00;;;6.68;;
75038;SDS011;63609;49.992;14.512;2023-10-19T02:21:42;13.57;;;6.93;;
75038;SDS011;63609;49.992;14.512;2023-10-19T02:24:14;16.27;;;6.53;;
75038;SDS011;63609;49.992;14.512;2023-10-19T02:26:42;14.40;;;7.43;;
75038;SDS011;63609;49.992;14.512;2023-10-19T02:29:10;16.23;;;7.40;;
75038;SDS011;63609;49.992;14.512;2023-10-19T02:31:37;18.52;;;7.40;;
75038;SDS011;63609;49.992;14.512;2023-10-19T02:34:04;14.88;;;6.43;;
75038;SDS011;63609;49.992;14.512;2023-10-19T02:36:33;13.05;;;6.07;;
75038;SDS011;63609;49.992;14.512;2023-10-19T02:39:07;11.88;;;6.53;;
75038;SDS011;63609;49.992;14.512;2023-10-19T02:41:39;12.73;;;5.80;;
75038;SDS011;63609;49.992;14.512;2023-10-19T02:44:08;13.10;;;6.05;;
75038;SDS011;63609;49.992;14.512;2023-10-19T02:46:46;17.70;;;7.03;;
75038;SDS011;63609;49.992;14.512;2023-10-19T02:49:14;10.73;;;6.85;;
75038;SDS011;63609;49.992;14.512;2023-10-19T02:51:46;18.08;;;6.32;;
75038;SDS011;63609;49.992;14.512;2023-10-19T02:54:15;13.95;;;7.28;;
75038;SDS011;63609;49.992;14.512;2023-10-19T02:56:47;12.20;;;6.40;;
75038;SDS011;63609;49.992;14.512;2023-10-19T03:01:51;15.07;;;6.55;;
75038;SDS011;63609;49.992;14.512;2023-10-19T03:04:28;11.90;;;6.03;;
75038;SDS011;63609;49.992;14.512;2023-10-19T03:06:56;16.40;;;6.18;;
75038;SDS011;63609;49.992;14.512;2023-10-19T03:09:23;10.02;;;6.07;;
75038;SDS011;63609;49.992;14.512;2023-10-19T03:11:54;12.27;;;6.55;;
75038;SDS011;63609;49.992;14.512;2023-10-19T03:14:26;13.45;;;6.07;;
75038;SDS011;63609;49.992;14.512;2023-10-19T03:16:53;12.45;;;6.18;;
75038;SDS011;63609;49.992;14.512;2023-10-19T03:19:24;15.77;;;6.50;;
75038;SDS011;63609;49.992;14.512;2023-10-19T03:21:54;15.93;;;6.90;;
75038;SDS011;63609;49.992;14.512;2023-10-19T03:24:27;17.55;;;7.03;;
75038;SDS011;63609;49.992;14.512;2023-10-19T03:27:04;13.50;;;6.45;;
75038;SDS011;63609;49.992;14.512;2023-10-19T03:29:52;12.20;;;6.15;;
75038;SDS011;63609;49.992;14.512;2023-10-19T03:32:23;12.95;;;6.20;;
75038;SDS011;63609;49.992;14.512;2023-10-19T03:34:55;13.38;;;6.70;;
75038;SDS011;63609;49.992;14.512;2023-10-19T03:37:23;11.68;;;6.32;;
75038;SDS011;63609;49.992;14.512;2023-10-19T03:39:53;14.60;;;6.57;;
75038;SDS011;63609;49.992;14.512;2023-10-19T03:42:24;14.00;;;7.07;;
75038;SDS011;63609;49.992;14.512;2023-10-19T03:44:59;14.73;;;6.93;;
75038;SDS011;63609;49.992;14.512;2023-10-19T03:47:34;16.50;;;7.55;;
75038;SDS011;63609;49.992;14.512;2023-10-19T03:50:02;14.00;;;6.65;;
75038;SDS011;63609;49.992;14.512;2023-10-19T03:52:35;13.60;;;6.80;;
75038;SDS011;63609;49.992;14.512;2023-10-19T03:55:05;12.50;;;6.15;;
75038;SDS011;63609;49.992;14.512;2023-10-19T03:57:38;14.40;;;7.03;;
75038;SDS011;63609;49.992;14.512;2023-10-19T04:00:08;12.57;;;6.03;;
75038;SDS011;63609;49.992;14.512;2023-10-19T04:02:44;15.13;;;7.50;;
75038;SDS011;63609;49.992;14.512;2023-10-19T04:05:12;14.88;;;7.32;;
75038;SDS011;63609;49.992;14.512;2023-10-19T04:07:42;13.88;;;6.88;;
75038;SDS011;63609;49.992;14.512;2023-10-19T04:10:09;13.60;;;7.20;;
75038;SDS011;63609;49.992;14.512;2023-10-19T04:12:56;15.07;;;7.50;;
75038;SDS011;63609;49.992;14.512;2023-10-19T04:15:26;13.25;;;7.22;;
75038;SDS011;63609;49.992;14.512;2023-10-19T04:17:55;12.23;;;7.13;;
75038;SDS011;63609;49.992;14.512;2023-10-19T04:20:25;17.58;;;7.63;;
75038;SDS011;63609;49.992;14.512;2023-10-19T04:22:54;13.85;;;7.82;;
75038;SDS011;63609;49.992;14.512;2023-10-19T04:25:21;19.08;;;8.55;;
75038;SDS011;63609;49.992;14.512;2023-10-19T04:27:56;15.38;;;7.68;;
75038;SDS011;63609;49.992;14.512;2023-10-19T04:30:24;16.27;;;8.65;;
75038;SDS011;63609;49.992;14.512;2023-10-19T04:32:51;16.00;;;8.15;;
75038;SDS011;63609;49.992;14.512;2023-10-19T04:35:18;17.73;;;8.75;;
75038;SDS011;63609;49.992;14.512;2023-10-19T04:37:51;15.10;;;8.93;;
75038;SDS011;63609;49.992;14.512;2023-10-19T04:40:20;18.25;;;8.55;;
75038;SDS011;63609;49.992;14.512;2023-10-19T04:42:52;15.05;;;7.65;;
75038;SDS011;63609;49.992;14.512;2023-10-19T04:45:20;15.73;;;8.30;;
75038;SDS011;63609;49.992;14.512;2023-10-19T04:47:53;15.18;;;7.40;;
75038;SDS011;63609;49.992;14.512;2023-10-19T04:50:23;15.02;;;7.75;;
75038;SDS011;63609;49.992;14.512;2023-10-19T04:52:50;15.95;;;8.00;;
75038;SDS011;63609;49.992;14.512;2023-10-19T04:55:17;15.35;;;7.30;;
75038;SDS011;63609;49.992;14.512;2023-10-19T04:57:45;15.82;;;7.07;;
75038;SDS011;63609;49.992;14.512;2023-10-19T05:00:12;13.23;;;7.95;;
75038;SDS011;63609;49.992;14.512;2023-10-19T05:02:41;14.07;;;7.18;;
75038;SDS011;63609;49.992;14.512;2023-10-19T05:05:09;14.88;;;7.13;;
75038;SDS011;63609;49.992;14.512;2023-10-19T05:07:37;15.32;;;7.28;;
75038;SDS011;63609;49.992;14.512;2023-10-19T05:10:05;15.45;;;8.45;;
75038;SDS011;63609;49.992;14.512;2023-10-19T05:12:32;16.45;;;8.23;;
75038;SDS011;63609;49.992;14.512;2023-10-19T05:14:59;17.15;;;8.40;;
75038;SDS011;63609;49.992;14.512;2023-10-19T05:17:26;17.17;;;7.88;;
75038;SDS011;63609;49.992;14.512;2023-10-19T05:19:54;14.85;;;7.57;;
75038;SDS011;63609;49.992;14.512;2023-10-19T05:22:23;17.10;;;8.35;;
75038;SDS011;63609;49.992;14.512;2023-10-19T05:24:51;14.93;;;7.57;;
75038;SDS011;63609;49.992;14.512;2023-10-19T05:27:19;13.45;;;7.88;;
75038;SDS011;63609;49.992;14.512;2023-10-19T05:29:47;13.75;;;7.63;;
75038;SDS011;63609;49.992;14.512;2023-10-19T05:32:14;20.40;;;8.15;;
75038;SDS011;63609;49.992;14.512;2023-10-19T05:34:42;16.42;;;8.10;;
75038;SDS011;63609;49.992;14.512;2023-10-19T05:37:08;15.73;;;7.70;;
75038;SDS011;63609;49.992;14.512;2023-10-19T05:39:37;18.25;;;9.23;;
75038;SDS011;63609;49.992;14.512;2023-10-19T05:42:03;15.75;;;8.88;;
75038;SDS011;63609;49.992;14.512;2023-10-19T05:44:31;15.55;;;9.05;;
75038;SDS011;63609;49.992;14.512;2023-10-19T05:46:59;17.35;;;9.65;;
75038;SDS011;63609;49.992;14.512;2023-10-19T05:49:27;18.00;;;9.65;;
75038;SDS011;63609;49.992;14.512;2023-10-19T05:51:57;15.77;;;9.32;;
75038;SDS011;63609;49.992;14.512;2023-10-19T05:54:24;16.80;;;9.07;;
75038;SDS011;63609;49.992;14.512;2023-10-19T05:56:51;17.95;;;8.82;;
75038;SDS011;63609;49.992;14.512;2023-10-19T05:59:19;15.52;;;8.50;;
75038;SDS011;63609;49.992;14.512;2023-10-19T06:01:46;15.68;;;8.45;;
75038;SDS011;63609;49.992;14.512;2023-10-19T06:04:15;17.50;;;8.90;;
75038;SDS011;63609;49.992;14.512;2023-10-19T06:06:58;16.20;;;8.05;;
75038;SDS011;63609;49.992;14.512;2023-10-19T06:09:25;18.23;;;9.35;;
75038;SDS011;63609;49.992;14.512;2023-10-19T06:11:56;17.42;;;9.10;;
75038;SDS011;63609;49.992;14.512;2023-10-19T06:14:23;18.08;;;9.00;;
75038;SDS011;63609;49.992;14.512;2023-10-19T06:16:53;17.50;;;9.80;;
75038;SDS011;63609;49.992;14.512;2023-10-19T06:19:21;18.58;;;9.32;;
75038;SDS011;63609;49.992;14.512;2023-10-19T06:21:50;17.50;;;9.27;;
75038;SDS011;63609;49.992;14.512;2023-10-19T06:24:17;18.63;;;10.02;;
75038;SDS011;63609;49.992;14.512;2023-10-19T06:26:45;20.15;;;10.27;;
75038;SDS011;63609;49.992;14.512;2023-10-19T06:29:12;19.95;;;9.80;;
75038;SDS011;63609;49.992;14.512;2023-10-19T06:31:39;19.73;;;9.90;;
75038;SDS011;63609;49.992;14.512;2023-10-19T06:34:06;22.15;;;9.55;;
75038;SDS011;63609;49.992;14.512;2023-10-19T06:36:33;23.65;;;9.82;;
75038;SDS011;63609;49.992;14.512;2023-10-19T06:39:00;17.25;;;9.38;;
75038;SDS011;63609;49.992;14.512;2023-10-19T06:41:32;20.38;;;9.93;;
75038;SDS011;63609;49.992;14.512;2023-10-19T06:43:59;22.02;;;11.52;;
75038;SDS011;63609;49.992;14.512;2023-10-19T06:46:27;18.58;;;10.00;;
75038;SDS011;63609;49.992;14.512;2023-10-19T06:48:55;21.23;;;10.13;;
75038;SDS011;63609;49.992;14.512;2023-10-19T06:51:27;19.90;;;10.32;;
75038;SDS011;63609;49.992;14.512;2023-10-19T06:53:54;22.40;;;9.85;;
75038;SDS011;63609;49.992;14.512;2023-10-19T06:56:22;20.73;;;10.52;;
75038;SDS011;63609;49.992;14.512;2023-10-19T06:58:49;19.92;;;10.00;;
75038;SDS011;63609;49.992;14.512;2023-10-19T07:01:16;21.00;;;10.98;;
75038;SDS011;63609;49.992;14.512;2023-10-19T07:03:44;23.23;;;10.90;;
75038;SDS011;63609;49.992;14.512;2023-10-19T07:06:11;23.23;;;12.02;;
75038;SDS011;63609;49.992;14.512;2023-10-19T07:08:40;22.25;;;12.02;;
75038;SDS011;63609;49.992;14.512;2023-10-19T07:11:07;26.13;;;12.07;;
75038;SDS011;63609;49.992;14.512;2023-10-19T07:13:36;24.27;;;11.57;;
75038;SDS011;63609;49.992;14.512;2023-10-19T07:16:03;20.63;;;11.90;;
75038;SDS011;63609;49.992;14.512;2023-10-19T07:18:31;19.75;;;12.02;;
75038;SDS011;63609;49.992;14.512;2023-10-19T07:20:58;23.73;;;11.70;;
75038;SDS011;63609;49.992;14.512;2023-10-19T07:23:32;23.23;;;10.85;;
75038;SDS011;63609;49.992;14.512;2023-10-19T07:25:59;17.85;;;10.68;;
75038;SDS011;63609;49.992;14.512;2023-10-19T07:28:26;20.25;;;10.95;;
75038;SDS011;63609;49.992;14.512;2023-10-19T07:30:55;23.33;;;11.73;;
75038;SDS011;63609;49.992;14.512;2023-10-19T07:33:30;23.40;;;11.55;;
75038;SDS011;63609;49.992;14.512;2023-10-19T07:35:57;23.73;;;11.18;;
75038;SDS011;63609;49.992;14.512;2023-10-19T07:38:27;20.35;;;10.77;;
75038;SDS011;63609;49.992;14.512;2023-10-19T07:40:55;22.27;;;11.48;;
75038;SDS011;63609;49.992;14.512;2023-10-19T07:43:23;23.33;;;11.40;;
75038;SDS011;63609;49.992;14.512;2023-10-19T07:45:52;23.77;;;10.68;;
75038;SDS011;63609;49.992;14.512;2023-10-19T07:48:19;21.48;;;11.70;;
75038;SDS011;63609;49.992;14.512;2023-10-19T07:50:46;20.98;;;11.13;;
75038;SDS011;63609;49.992;14.512;2023-10-19T07:53:13;20.08;;;11.18;;
75038;SDS011;63609;49.992;14.512;2023-10-19T07:55:40;20.33;;;11.38;;
75038;SDS011;63609;49.992;14.512;2023-10-19T07:58:17;21.52;;;11.35;;
75038;SDS011;63609;49.992;14.512;2023-10-19T08:00:48;18.15;;;11.05;;
75038;SDS011;63609;49.992;14.512;2023-10-19T08:03:17;20.45;;;11.98;;
75038;SDS011;63609;49.992;14.512;2023-10-19T08:05:44;20.80;;;11.15;;
75038;SDS011;63609;49.992;14.512;2023-10-19T08:08:11;20.17;;;10.52;;
75038;SDS011;63609;49.992;14.512;2023-10-19T08:10:39;25.83;;;12.43;;
75038;SDS011;63609;49.992;14.512;2023-10-19T08:13:06;22.95;;;12.25;;
75038;SDS011;63609;49.992;14.512;2023-10-19T08:15:33;25.08;;;11.98;;
75038;SDS011;63609;49.992;14.512;2023-10-19T08:18:00;24.55;;;13.10;;
75038;SDS011;63609;49.992;14.512;2023-10-19T08:20:28;20.17;;;12.38;;
75038;SDS011;63609;49.992;14.512;2023-10-19T08:22:58;23.25;;;11.45;;
75038;SDS011;63609;49.992;14.512;2023-10-19T08:25:29;22.58;;;12.63;;
75038;SDS011;63609;49.992;14.512;2023-10-19T08:27:59;23.67;;;13.07;;
75038;SDS011;63609;49.992;14.512;2023-10-19T08:30:28;27.75;;;13.30;;
75038;SDS011;63609;49.992;14.512;2023-10-19T08:32:55;22.38;;;11.57;;
75038;SDS011;63609;49.992;14.512;2023-10-19T08:35:26;23.58;;;11.55;;
75038;SDS011;63609;49.992;14.512;2023-10-19T08:37:54;25.42;;;13.45;;
75038;SDS011;63609;49.992;14.512;2023-10-19T08:40:24;28.17;;;13.10;;
75038;SDS011;63609;49.992;14.512;2023-10-19T08:42:54;29.20;;;14.15;;
75038;SDS011;63609;49.992;14.512;2023-10-19T08:45:22;26.08;;;13.65;;
75038;SDS011;63609;49.992;14.512;2023-10-19T08:47:55;25.33;;;12.50;;
75038;SDS011;63609;49.992;14.512;2023-10-19T08:50:25;25.83;;;13.80;;
75038;SDS011;63609;49.992;14.512;2023-10-19T08:52:59;22.65;;;12.63;;
75038;SDS011;63609;49.992;14.512;2023-10-19T08:55:29;22.88;;;12.38;;
75038;SDS011;63609;49.992;14.512;2023-10-19T08:58:14;24.60;;;13.25;;
75038;SDS011;63609;49.992;14.512;2023-10-19T09:00:47;23.17;;;12.68;;
75038;SDS011;63609;49.992;14.512;2023-10-19T09:03:18;23.98;;;11.45;;
75038;SDS011;63609;49.992;14.512;2023-10-19T09:05:46;23.88;;;12.63;;
75038;SDS011;63609;49.992;14.512;2023-10-19T09:08:17;23.23;;;12.02;;
75038;SDS011;63609;49.992;14.512;2023-10-19T09:10:47;22.27;;;12.10;;
75038;SDS011;63609;49.992;14.512;2023-10-19T09:13:16;23.85;;;12.70;;
75038;SDS011;63609;49.992;14.512;2023-10-19T09:15:46;26.85;;;13.98;;
75038;SDS011;63609;49.992;14.512;2023-10-19T09:20:46;24.23;;;13.10;;
75038;SDS011;63609;49.992;14.512;2023-10-19T09:23:24;25.30;;;12.77;;
75038;SDS011;63609;49.992;14.512;2023-10-19T09:25:56;21.95;;;12.43;;
75038;SDS011;63609;49.992;14.512;2023-10-19T09:28:24;28.92;;;13.75;;
75038;SDS011;63609;49.992;14.512;2023-10-19T09:30:52;23.45;;;13.70;;
75038;SDS011;63609;49.992;14.512;2023-10-19T09:33:20;25.55;;;13.55;;
75038;SDS011;63609;49.992;14.512;2023-10-19T09:35:49;26.85;;;14.02;;
75038;SDS011;63609;49.992;14.512;2023-10-19T09:38:23;26.45;;;13.55;;
75038;SDS011;63609;49.992;14.512;2023-10-19T09:40:52;23.42;;;13.20;;
75038;SDS011;63609;49.992;14.512;2023-10-19T09:43:33;25.48;;;12.38;;
75038;SDS011;63609;49.992;14.512;2023-10-19T09:46:06;25.65;;;14.82;;
75038;SDS011;63609;49.992;14.512;2023-10-19T09:48:41;24.08;;;13.13;;
75038;SDS011;63609;49.992;14.512;2023-10-19T09:51:13;25.27;;;13.63;;
75038;SDS011;63609;49.992;14.512;2023-10-19T09:56:41;25.88;;;13.20;;
75038;SDS011;63609;49.992;14.512;2023-10-19T10:04:31;29.00;;;12.27;;
75038;SDS011;63609;49.992;14.512;2023-10-19T10:06:59;27.52;;;14.50;;
75038;SDS011;63609;49.992;14.512;2023-10-19T10:09:26;27.30;;;13.98;;
75038;SDS011;63609;49.992;14.512;2023-10-19T10:11:53;25.27;;;13.75;;
75038;SDS011;63609;49.992;14.512;2023-10-19T10:14:22;27.02;;;14.43;;
75038;SDS011;63609;49.992;14.512;2023-10-19T10:17:01;26.02;;;13.52;;
75038;SDS011;63609;49.992;14.512;2023-10-19T10:19:29;25.75;;;13.73;;
75038;SDS011;63609;49.992;14.512;2023-10-19T10:22:10;26.08;;;13.32;;
75038;SDS011;63609;49.992;14.512;2023-10-19T10:24:47;27.33;;;14.93;;
75038;SDS011;63609;49.992;14.512;2023-10-19T10:27:21;27.02;;;14.40;;
75038;SDS011;63609;49.992;14.512;2023-10-19T10:29:58;24.92;;;14.18;;
75038;SDS011;63609;49.992;14.512;2023-10-19T10:33:08;25.95;;;14.45;;
75038;SDS011;63609;49.992;14.512;2023-10-19T10:38:08;25.45;;;13.55;;
